AirNav   ATP
 
 689 users online  

20M Macon Municipal Airport
Macon, Mississippi, USA

GOING TO MACON?


FAA INFORMATION EFFECTIVE 06 DECEMBER 2018

Location

FAA Identifier: 20M
Lat/Long: 33-08-01.4000N / 088-32-09.6000W
33-08.023333N / 088-32.160000W
33.1337222 / -88.5360000
(estimated)
Elevation: 238 ft. / 72.5 m (surveyed)
Variation: 01E (1985)
From city: 2 miles E of MACON, MS
Time zone: UTC -6 (UTC -5 during Daylight Saving Time)
Zip code: 39341

Airport Operations

Airport use: Open to the public
Activation date: 10/1964
Control tower: no
ARTCC: MEMPHIS CENTER
FSS: GREENWOOD FLIGHT SERVICE STATION
NOTAMs facility: GWO (NOTAM-D service available)
Attendance: UNATNDD
Wind indicator: lighted
Segmented circle: yes
Lights: ACTVT MIRL RY 18/36 - CTAF.
Beacon: white-green (lighted land airport)
Operates sunset to sunrise.

Airport Communications

CTAF/UNICOM: 122.7
WX AWOS-3PT at GTR (19 nm N): 126.375 (662-328-7798)

Nearby radio navigation aids

VOR radial/distance  VOR name  Freq  Var
IGBr179/21.1BIGBEE VORTAC116.2004E
CBMr189/30.9CALEDONIA VORTAC115.2000E

Airport Services

Fuel available: 100LL
AVAIL. 24/7 WITH CC.
Parking: tiedowns
Bottled oxygen: NONE
Bulk oxygen: NONE

Runway Information

Runway 18/36

Dimensions: 3000 x 50 ft. / 914 x 15 m
Surface: asphalt, in good condition
Weight bearing capacity: 
Single wheel: 28.0
Runway edge lights: medium intensity
RUNWAY 18  RUNWAY 36
Latitude: 33-08.270638N33-07.775847N
Longitude: 088-32.162997W088-32.157597W
Elevation: 228.0 ft.221.0 ft.
Gradient: 0.4%0.4%
Traffic pattern: leftleft
Runway heading: 178 magnetic, 179 true359 magnetic, 360 true
Markings: basic, in fair conditionbasic, in fair condition
Obstructions: none45 ft. trees, 1008 ft. from runway, 100 ft. left of centerline, 17:1 slope to clear

Airport Ownership and Management from official FAA records

Ownership: Publicly-owned
Owner: CITY OF MACON
105 W PULASKI ST, BOX 29
MACON, MS 39341
Phone 662-726-5847
Manager: ROBERT E. BOYKIN-MAYOR
105 W PULASKI ST/BOX 29
MACON, MS 39341
Phone 662-726-5847

Airport Operational Statistics

Aircraft based on the field: 13
Single engine airplanes: 12
Helicopters: 1
    
Aircraft operations: avg 121/week *
62% transient general aviation
38% local general aviation
* for 12-month period ending 13 March 2018

Additional Remarks

DUE TO LIMITED LINE OF SIGHT ALL ACFT ARE REQUIRED TO ANNOUNCE TKOF & LNDG ON CTAF.

Instrument Procedures

There are no published instrument procedures at 20M.

Some nearby airports with instrument procedures:

KAIV - George Downer Airport (17 nm E)
KGTR - Golden Triangle Regional Airport (19 nm N)
KUBS - Columbus-Lowndes County Airport (21 nm N)
M51 - Oktibbeha Airport (23 nm N)
KSTF - George M Bryan Airport (24 nm NW)
 
Loc | Ops | Rwys | IFR | FBO | Links
Com | Nav | Svcs | Stats | Notes


 
Area around 20M (Macon Municipal Airport)
 
Road maps at: MapQuest Bing Google
 
Aerial photo
WARNING: Photo may not be current or correct
Aerial photo of 20M (Macon Municipal Airport)
Photo by Dale Weaver
Taken in November 2017
looking north.

Do you have a better or more recent aerial photo of Macon Municipal Airport that you would like to share? If so, please send us your photo.

 
Sectional chart

 
Airport distance calculator
Flying to Macon Municipal Airport? Find the distance to fly.

From to 20M

Sunrise and sunset
Times for 15-Dec-2018
 Local
(UTC-6)
 Zulu
(UTC)
Morning civil twilight06:2412:24
Sunrise06:5112:51
Sunset16:4822:48
Evening civil twilight17:1523:15

Current date and time
Zulu (UTC)  16-Dec-2018 04:24:58
Local (UTC-6)  15-Dec-2018 22:24:58
 
METAR
KGTR 
19nm N 
160356Z AUTO 25004KT 10SM OVC009 09/08 A3012 RMK AO2 CIG 007V011 SLP200 T00890078
KSTF 
24nm NW 
160355Z AUTO 00000KT 10SM SCT009 BKN012 OVC044 08/07 A3012 RMK AO2 PWINO
KCBM 
30nm N 
160356Z AUTO 27004KT 10SM OVC010 09/08 A3010 RMK AO2 CIG 009 RWY31C SLP196 T00900076
KNMM 
36nm S 
160356Z AUTO 31005KT 10SM OVC029 10/08 A3013 RMK AO2 SLP215 T01000078 CHINO SOUTH VISNO SOUTH $
TAF
KGTR 
19nm N 
152220Z 1522/1618 28007KT P6SM OVC015 FM160300 28006KT P6SM OVC007 FM161300 32008KT P6SM BKN015 FM161600 33008KT P6SM FEW015 SCT250
NOTAMs
Click for the latest NOTAMs
NOTAMs are issued by the DoD/FAA and will open in a separate window not controlled by AirNav.

 

 
 

FBO, Fuel Providers, and Aircraft Ground Support

  
 Business Name 
 
 Contact 
 
 Services / Description 
 
Fuel Prices
 
Comments
  
Macon Municipal Airport 662-726-5847
no information available

If you are affiliated with Macon Municipal Airport and would like to show here your services, contact info, web link, logo, and more, click here
100LL
SS $3.99 
 Updated 27-Sep-2018
 
   write
SS=Self service
Update Fuel Prices
 

Would you like to see your business listed on this page?

 If your business provides an interesting product or service to pilots, flight crews, aircraft, or users of the Macon Municipal Airport, you should consider listing it here.  To start the listing process, click on the button below
 
Add a business
 

Other Pages about Macon Municipal Airport

Update a link
 
Copyright © AirNav, LLC. All rights reserved. Privacy Policy  Contact